createdAt,value
2019-01-20T00:25:01.959Z,-7.34
2019-01-20T00:53:39.431Z,-7.4
2019-01-20T01:22:09.676Z,-7.67
2019-01-20T01:50:43.224Z,-7.54
2019-01-20T02:19:19.916Z,-7.68
2019-01-20T02:47:55.556Z,-7.79
2019-01-20T03:16:32.137Z,-7.87
2019-01-20T03:45:08.043Z,-8
2019-01-20T04:13:44.269Z,-8.23
2019-01-20T04:42:20.051Z,-8.33
2019-01-20T05:10:58.239Z,-8.42
2019-01-20T05:39:24.409Z,-8.56
2019-01-20T06:08:01.977Z,-8.46
2019-01-20T06:36:37.378Z,-8.88
2019-01-20T07:05:09.257Z,-8.83
2019-01-20T07:33:46.608Z,-8.76
2019-01-20T08:02:24.596Z,-8.17
2019-01-20T08:31:06.494Z,-7.26
2019-01-20T08:59:44.899Z,-6.58
2019-01-20T09:28:23.676Z,-6.11
2019-01-20T09:57:05.158Z,-5.35
2019-01-20T10:25:44.592Z,-4.4
2019-01-20T10:54:22.484Z,-3.46
2019-01-20T11:23:03.707Z,-3.02
2019-01-20T11:51:44.269Z,-2.63
2019-01-20T12:20:20.367Z,-1.66
2019-01-20T12:48:57.845Z,-1.99
2019-01-20T13:17:38.038Z,-1.8
2019-01-20T13:46:10.148Z,-1.76
2019-01-20T14:14:53.821Z,-1.57
2019-01-20T14:43:12.641Z,-1.87
2019-01-20T15:11:48.443Z,-1.93
2019-01-20T15:40:24.239Z,-1.99
2019-01-20T16:09:00.957Z,-2.17
2019-01-20T16:37:38.113Z,-2.11
2019-01-20T17:06:12.748Z,-2.58
2019-01-20T17:34:47.145Z,-2.99
2019-01-20T18:03:24.603Z,-3.41
2019-01-20T18:31:57.292Z,-4.39
2019-01-20T19:00:33.157Z,-4.51
2019-01-20T19:29:12.352Z,-4.07
2019-01-20T19:57:49.980Z,-4
2019-01-20T20:26:20.994Z,-4.06
2019-01-20T20:54:55.750Z,-4.31
2019-01-20T21:23:31.749Z,-4.84
2019-01-20T21:52:07.444Z,-5.44
2019-01-20T22:20:38.220Z,-5.82
2019-01-20T22:49:08.954Z,-6.16
2019-01-20T23:17:40.641Z,-6.78
2019-01-20T23:46:11.241Z,-6.95
